createdAt,value
2023-05-20T00:00:01.694Z,9.90
2023-05-20T00:02:30.108Z,10.80
2023-05-20T00:04:58.093Z,12.70
2023-05-20T00:07:26.178Z,12.00
2023-05-20T00:09:56.639Z,15.50
2023-05-20T00:12:26.923Z,11.50
2023-05-20T00:14:55.898Z,13.60
2023-05-20T00:17:25.765Z,13.00
2023-05-20T00:19:53.543Z,11.90
2023-05-20T00:22:21.744Z,16.40
2023-05-20T00:24:49.838Z,12.70
2023-05-20T00:27:17.686Z,15.80
2023-05-20T00:29:46.272Z,18.20
2023-05-20T00:32:14.323Z,14.50
2023-05-20T00:34:43.187Z,15.20
2023-05-20T00:37:11.034Z,12.70
2023-05-20T00:39:38.880Z,15.20
2023-05-20T00:42:06.642Z,17.40
2023-05-20T00:44:34.436Z,15.40
2023-05-20T00:47:02.307Z,15.50
2023-05-20T00:49:30.210Z,16.80
2023-05-20T00:51:58.010Z,22.20
2023-05-20T00:54:25.864Z,15.70
2023-05-20T00:56:53.876Z,13.70
2023-05-20T00:59:21.666Z,16.20
2023-05-20T01:01:49.573Z,18.80
2023-05-20T01:04:17.616Z,16.60
2023-05-20T01:06:46.358Z,18.60
2023-05-20T01:09:14.273Z,15.20
2023-05-20T01:11:48.810Z,18.80
2023-05-20T01:14:17.901Z,12.70
2023-05-20T01:16:48.142Z,12.60
2023-05-20T01:19:25.445Z,15.40
2023-05-20T01:21:54.250Z,17.30
2023-05-20T01:24:22.249Z,13.80
2023-05-20T01:26:50.431Z,13.60
2023-05-20T01:29:18.800Z,15.20
2023-05-20T01:31:47.823Z,11.60
2023-05-20T01:34:16.334Z,12.10
2023-05-20T01:36:45.801Z,14.30
2023-05-20T01:39:29.983Z,13.60
2023-05-20T01:41:58.364Z,13.00
2023-05-20T01:44:26.356Z,15.50
2023-05-20T01:46:57.352Z,12.40
2023-05-20T01:49:25.514Z,13.40
2023-05-20T01:51:58.926Z,16.00
2023-05-20T01:54:26.867Z,15.20
2023-05-20T01:56:57.442Z,14.50
2023-05-20T01:59:25.310Z,13.70
2023-05-20T02:01:53.332Z,12.90
2023-05-20T02:04:22.657Z,17.00
2023-05-20T02:06:50.701Z,14.50
2023-05-20T02:09:18.873Z,16.90
2023-05-20T02:11:46.769Z,14.90
2023-05-20T02:14:14.980Z,13.00
2023-05-20T02:16:42.780Z,15.40
2023-05-20T02:19:13.051Z,10.50
2023-05-20T02:21:44.061Z,13.30
2023-05-20T02:24:11.976Z,12.20
2023-05-20T02:26:39.794Z,12.60
2023-05-20T02:29:08.063Z,11.70
2023-05-20T02:31:36.022Z,12.60
2023-05-20T02:34:06.623Z,12.70
2023-05-20T02:36:34.546Z,13.30
2023-05-20T02:39:02.507Z,11.50
2023-05-20T02:41:30.397Z,12.60
2023-05-20T02:44:01.300Z,12.70
2023-05-20T02:46:29.203Z,14.10
2023-05-20T02:48:57.423Z,12.10
2023-05-20T02:51:25.720Z,12.80
2023-05-20T02:53:53.495Z,13.70
2023-05-20T02:56:21.594Z,11.10
2023-05-20T02:58:49.629Z,10.50
2023-05-20T03:01:17.460Z,10.00
2023-05-20T03:03:45.493Z,9.00
2023-05-20T03:06:13.253Z,11.40
2023-05-20T03:08:43.460Z,11.30
2023-05-20T03:11:11.302Z,10.00
2023-05-20T03:13:39.230Z,11.00
2023-05-20T03:16:09.522Z,11.20
2023-05-20T03:18:37.646Z,11.40
2023-05-20T03:21:05.652Z,13.20
2023-05-20T03:23:33.513Z,8.90
2023-05-20T03:26:01.837Z,12.50
2023-05-20T03:28:29.827Z,10.80
2023-05-20T03:30:57.656Z,8.80
2023-05-20T03:33:26.390Z,9.40
2023-05-20T03:35:54.159Z,13.40
2023-05-20T03:38:22.136Z,13.60
2023-05-20T03:40:49.998Z,12.50
2023-05-20T03:43:17.749Z,12.90
2023-05-20T03:45:45.640Z,15.40
2023-05-20T03:48:13.607Z,10.80
2023-05-20T03:50:41.369Z,12.60
2023-05-20T03:53:09.127Z,11.80
2023-05-20T03:55:37.048Z,10.90
2023-05-20T03:58:05.077Z,9.50
2023-05-20T04:00:33.017Z,10.10
2023-05-20T04:03:01.323Z,13.40
2023-05-20T04:05:29.209Z,10.00
2023-05-20T04:07:57.613Z,12.80
2023-05-20T04:10:25.608Z,10.00
2023-05-20T04:12:54.017Z,10.40
2023-05-20T04:15:23.921Z,7.90
2023-05-20T04:17:52.472Z,15.70
2023-05-20T04:20:22.744Z,10.40
2023-05-20T04:22:50.794Z,10.80
2023-05-20T04:25:18.516Z,10.10
2023-05-20T04:27:46.571Z,9.50
2023-05-20T04:30:14.546Z,9.20
2023-05-20T04:32:42.385Z,12.30
2023-05-20T04:35:13.943Z,8.50
2023-05-20T04:37:53.165Z,11.10
2023-05-20T04:40:21.437Z,10.70
2023-05-20T04:42:49.315Z,12.80
2023-05-20T04:45:17.168Z,9.20
2023-05-20T04:47:46.065Z,8.80
2023-05-20T04:50:14.808Z,11.50
2023-05-20T04:52:51.783Z,8.10
2023-05-20T04:55:21.629Z,8.60
2023-05-20T04:57:52.702Z,9.70
2023-05-20T05:00:20.774Z,8.90
2023-05-20T05:02:48.660Z,11.00
2023-05-20T05:05:16.486Z,10.10
2023-05-20T05:07:44.313Z,10.40
2023-05-20T05:10:12.745Z,9.40
2023-05-20T05:12:40.475Z,12.10
2023-05-20T05:15:08.692Z,12.90
2023-05-20T05:17:36.754Z,18.30
2023-05-20T05:20:04.790Z,11.10
2023-05-20T05:22:32.595Z,21.40
2023-05-20T05:25:00.597Z,9.00
2023-05-20T05:27:28.708Z,16.50
2023-05-20T05:29:56.677Z,9.50
2023-05-20T05:32:24.621Z,9.10
2023-05-20T05:34:52.538Z,13.50
2023-05-20T05:37:21.297Z,9.60
2023-05-20T05:39:49.328Z,17.10
2023-05-20T05:42:17.270Z,11.30
2023-05-20T05:44:45.132Z,8.10
2023-05-20T05:47:12.972Z,13.20
2023-05-20T05:49:41.194Z,12.00
2023-05-20T05:52:08.952Z,10.00
2023-05-20T05:54:36.768Z,8.20
2023-05-20T05:57:06.526Z,13.00
2023-05-20T05:59:34.443Z,11.90
2023-05-20T06:02:02.317Z,11.30
2023-05-20T06:04:30.213Z,8.70
2023-05-20T06:06:58.559Z,10.50
2023-05-20T06:09:26.359Z,10.30
2023-05-20T06:11:54.236Z,11.50
2023-05-20T06:14:22.105Z,9.60
2023-05-20T06:16:49.986Z,10.80
2023-05-20T06:19:18.325Z,8.80
2023-05-20T06:21:46.359Z,9.70
2023-05-20T06:24:14.304Z,9.60
2023-05-20T06:26:42.181Z,9.80
2023-05-20T06:29:10.105Z,10.20
2023-05-20T06:31:37.963Z,11.10
2023-05-20T06:34:05.783Z,11.00
2023-05-20T06:36:34.002Z,15.60
2023-05-20T06:39:01.962Z,12.20
2023-05-20T06:41:29.804Z,9.90
2023-05-20T06:43:57.872Z,12.10
2023-05-20T06:46:25.703Z,11.90
2023-05-20T06:48:53.590Z,13.10
2023-05-20T06:51:21.962Z,9.70
2023-05-20T06:53:49.638Z,10.20
2023-05-20T06:56:17.586Z,8.20
2023-05-20T06:58:45.352Z,10.30
2023-05-20T07:01:13.594Z,9.60
2023-05-20T07:03:42.849Z,11.60
2023-05-20T07:06:11.124Z,9.90
2023-05-20T07:08:38.951Z,12.50
2023-05-20T07:11:06.982Z,9.60
2023-05-20T07:13:35.196Z,14.50
2023-05-20T07:16:03.089Z,8.10
2023-05-20T07:18:31.228Z,10.00
2023-05-20T07:20:59.236Z,8.30
2023-05-20T07:23:27.037Z,10.70
2023-05-20T07:25:54.843Z,8.80
2023-05-20T07:28:23.017Z,9.40
2023-05-20T07:30:50.823Z,10.00
2023-05-20T07:33:19.182Z,8.90
2023-05-20T07:35:47.012Z,10.90
2023-05-20T07:38:15.092Z,10.60
2023-05-20T07:40:42.873Z,16.60
2023-05-20T07:43:10.773Z,11.40
2023-05-20T07:45:38.894Z,12.30
2023-05-20T07:48:08.880Z,9.60
2023-05-20T07:50:37.088Z,8.80
2023-05-20T07:53:05.142Z,10.80
2023-05-20T07:55:38.730Z,9.20
2023-05-20T07:58:06.525Z,9.60
2023-05-20T08:00:34.273Z,10.70
2023-05-20T08:03:02.352Z,10.00
2023-05-20T08:05:30.309Z,12.10
2023-05-20T08:07:58.105Z,14.90
2023-05-20T08:10:25.938Z,10.50
2023-05-20T08:12:53.815Z,14.80
2023-05-20T08:15:21.651Z,14.70
2023-05-20T08:17:49.633Z,10.90
2023-05-20T08:20:18.560Z,13.20
2023-05-20T08:22:46.311Z,11.00
2023-05-20T08:25:14.954Z,12.30
2023-05-20T08:27:42.748Z,14.10
2023-05-20T08:30:10.700Z,12.70
2023-05-20T08:32:38.745Z,12.20
2023-05-20T08:35:07.977Z,12.60
2023-05-20T08:37:35.902Z,14.50
2023-05-20T08:40:05.273Z,11.10
2023-05-20T08:42:33.008Z,15.50
2023-05-20T08:45:01.247Z,11.40
2023-05-20T08:47:29.090Z,15.00
2023-05-20T08:49:57.021Z,13.40
2023-05-20T08:52:25.657Z,13.60
2023-05-20T08:54:56.802Z,13.40
2023-05-20T08:57:24.926Z,15.90
2023-05-20T08:59:52.818Z,12.70
2023-05-20T09:02:20.698Z,15.90
2023-05-20T09:04:48.880Z,12.30
2023-05-20T09:07:26.739Z,17.00
2023-05-20T09:09:54.598Z,14.00
2023-05-20T09:12:22.543Z,16.10
2023-05-20T09:14:50.298Z,18.50
2023-05-20T09:17:18.461Z,16.90
2023-05-20T09:19:48.129Z,16.70
2023-05-20T09:22:21.669Z,20.30
2023-05-20T09:24:49.502Z,15.40
2023-05-20T09:27:17.251Z,16.00
2023-05-20T09:29:45.037Z,21.90
2023-05-20T09:32:13.647Z,15.60
2023-05-20T09:34:45.519Z,15.00
2023-05-20T09:37:14.541Z,20.80
2023-05-20T09:39:56.866Z,20.30
2023-05-20T09:42:26.610Z,15.30
2023-05-20T09:44:54.965Z,19.50
2023-05-20T09:47:24.213Z,15.60
2023-05-20T09:49:52.822Z,20.10
2023-05-20T09:52:21.644Z,15.10
2023-05-20T09:54:49.709Z,14.90
2023-05-20T09:57:17.661Z,13.50
2023-05-20T09:59:45.933Z,17.20
2023-05-20T10:02:13.860Z,18.20
2023-05-20T10:04:45.010Z,20.20
2023-05-20T10:07:41.865Z,15.40
2023-05-20T10:10:10.698Z,13.70
2023-05-20T10:12:41.477Z,13.50
2023-05-20T10:15:12.396Z,19.20
2023-05-20T10:17:44.170Z,15.80
2023-05-20T10:20:12.340Z,11.50
2023-05-20T10:22:40.762Z,16.30
2023-05-20T10:25:12.960Z,14.80
2023-05-20T10:27:47.927Z,16.30
2023-05-20T10:30:18.901Z,16.60
2023-05-20T10:32:53.397Z,16.80
2023-05-20T10:35:22.541Z,19.10
2023-05-20T10:37:50.433Z,19.50
2023-05-20T10:40:19.634Z,21.20
2023-05-20T10:42:48.230Z,14.60
2023-05-20T10:45:29.581Z,17.30
2023-05-20T10:47:58.425Z,17.20
2023-05-20T10:50:28.066Z,18.60
2023-05-20T10:53:02.359Z,30.20
2023-05-20T10:55:35.560Z,22.60
2023-05-20T10:58:03.926Z,17.30
2023-05-20T11:00:32.201Z,16.10
2023-05-20T11:03:00.823Z,17.90
2023-05-20T11:05:29.813Z,17.30
2023-05-20T11:08:08.007Z,18.50
2023-05-20T11:10:38.767Z,14.90
2023-05-20T11:13:06.602Z,14.50
2023-05-20T11:15:35.560Z,17.50
2023-05-20T11:18:04.029Z,13.90
2023-05-20T11:20:35.396Z,13.80
2023-05-20T11:23:03.652Z,15.50
2023-05-20T11:25:32.757Z,19.00
2023-05-20T11:28:00.545Z,17.00
2023-05-20T11:30:28.422Z,13.60
2023-05-20T11:32:56.767Z,13.40
2023-05-20T11:35:25.218Z,14.60
2023-05-20T11:37:57.216Z,15.70
2023-05-20T11:40:28.651Z,15.00
2023-05-20T11:43:01.465Z,18.60
2023-05-20T11:45:42.142Z,16.70
2023-05-20T11:48:10.493Z,13.30
2023-05-20T11:50:42.793Z,14.80
2023-05-20T11:53:11.270Z,14.00
2023-05-20T11:55:46.971Z,16.10
2023-05-20T11:58:25.154Z,18.00
2023-05-20T12:00:59.436Z,15.70
2023-05-20T12:03:30.140Z,13.00
2023-05-20T12:06:04.732Z,13.30
2023-05-20T12:08:35.536Z,13.70
2023-05-20T12:11:05.100Z,13.60
2023-05-20T12:13:35.072Z,14.80
2023-05-20T12:16:05.833Z,15.60
2023-05-20T12:18:36.371Z,15.40
2023-05-20T12:21:04.384Z,19.90
2023-05-20T12:23:34.389Z,18.40
2023-05-20T12:26:02.755Z,16.30
2023-05-20T12:28:32.200Z,16.80
2023-05-20T12:31:02.794Z,13.50
2023-05-20T12:33:31.031Z,17.90
2023-05-20T12:36:01.636Z,14.50
2023-05-20T12:38:29.641Z,14.00
2023-05-20T12:41:00.230Z,18.80
2023-05-20T12:43:28.373Z,14.30
2023-05-20T12:45:56.478Z,13.00
2023-05-20T12:48:26.756Z,17.60
2023-05-20T12:50:54.953Z,14.70
2023-05-20T12:53:23.068Z,17.80
2023-05-20T12:55:51.022Z,14.70
2023-05-20T12:58:18.977Z,18.50
2023-05-20T13:00:46.960Z,16.30
2023-05-20T13:03:15.320Z,20.30
2023-05-20T13:05:43.958Z,21.90
2023-05-20T13:08:12.793Z,16.20
2023-05-20T13:10:40.982Z,18.10
2023-05-20T13:13:15.280Z,15.50
2023-05-20T13:15:43.777Z,16.30
2023-05-20T13:18:12.000Z,20.40
2023-05-20T13:20:40.661Z,16.30
2023-05-20T13:23:09.351Z,20.50
2023-05-20T13:25:37.322Z,19.60
2023-05-20T13:28:05.732Z,17.50
2023-05-20T13:30:37.868Z,18.40
2023-05-20T13:33:06.544Z,21.60
2023-05-20T13:35:35.055Z,17.30
2023-05-20T13:38:08.984Z,20.60
2023-05-20T13:40:37.358Z,16.80
2023-05-20T13:43:06.304Z,17.40
2023-05-20T13:45:37.838Z,20.60
2023-05-20T13:48:07.586Z,24.20
2023-05-20T13:50:36.580Z,19.20
2023-05-20T13:53:08.400Z,18.90
2023-05-20T13:55:36.889Z,22.60
2023-05-20T13:58:05.663Z,22.40
2023-05-20T14:00:34.207Z,17.70
2023-05-20T14:03:04.968Z,13.40
2023-05-20T14:05:33.003Z,14.40
2023-05-20T14:08:01.163Z,16.90
2023-05-20T14:10:28.984Z,20.00
2023-05-20T14:13:02.002Z,14.90
2023-05-20T14:15:30.803Z,18.70
2023-05-20T14:17:58.735Z,16.20
2023-05-20T14:20:26.993Z,17.20
2023-05-20T14:22:54.878Z,22.10
2023-05-20T14:25:22.789Z,25.00
2023-05-20T14:27:51.058Z,14.90
2023-05-20T14:30:18.900Z,13.60
2023-05-20T14:32:46.837Z,19.90
2023-05-20T14:35:15.006Z,17.50
2023-05-20T14:37:42.874Z,12.90
2023-05-20T14:40:11.385Z,17.70
2023-05-20T14:42:39.378Z,17.00
2023-05-20T14:45:07.464Z,19.70
2023-05-20T14:47:36.097Z,15.70
2023-05-20T14:50:06.703Z,15.50
2023-05-20T14:52:34.689Z,14.40
2023-05-20T14:55:05.757Z,12.40
2023-05-20T14:57:33.519Z,14.70
2023-05-20T15:00:01.365Z,18.80
2023-05-20T15:02:29.266Z,18.60
2023-05-20T15:04:57.625Z,15.70
2023-05-20T15:07:28.180Z,17.40
2023-05-20T15:09:58.449Z,18.30
2023-05-20T15:12:26.706Z,13.80
2023-05-20T15:14:54.511Z,18.40
2023-05-20T15:17:22.742Z,15.80
2023-05-20T15:19:50.549Z,16.20
2023-05-20T15:22:21.409Z,12.90
2023-05-20T15:24:50.755Z,17.80
2023-05-20T15:27:25.790Z,27.20
2023-05-20T15:29:53.594Z,18.10
2023-05-20T15:32:21.641Z,16.90
2023-05-20T15:34:49.657Z,15.50
2023-05-20T15:37:22.206Z,17.80
2023-05-20T15:39:50.275Z,19.90
2023-05-20T15:42:18.640Z,16.10
2023-05-20T15:44:46.746Z,16.40
2023-05-20T15:47:14.700Z,16.70
2023-05-20T15:49:42.660Z,16.40
2023-05-20T15:52:10.768Z,15.40
2023-05-20T15:54:38.731Z,20.90
2023-05-20T15:57:06.701Z,19.80
2023-05-20T15:59:37.037Z,17.90
2023-05-20T16:02:04.938Z,18.00
2023-05-20T16:04:32.954Z,16.10
2023-05-20T16:07:01.392Z,17.80
2023-05-20T16:09:29.336Z,19.20
2023-05-20T16:11:57.314Z,21.10
2023-05-20T16:14:25.291Z,18.70
2023-05-20T16:16:53.310Z,15.40
2023-05-20T16:19:21.314Z,13.40
2023-05-20T16:21:49.589Z,18.70
2023-05-20T16:24:17.984Z,17.40
2023-05-20T16:26:45.992Z,11.80
2023-05-20T16:29:16.293Z,13.30
2023-05-20T16:31:46.824Z,16.10
2023-05-20T16:34:15.981Z,16.80
2023-05-20T16:36:45.848Z,16.10
2023-05-20T16:39:14.500Z,22.70
2023-05-20T16:41:43.199Z,20.70
2023-05-20T16:44:11.225Z,38.50
2023-05-20T16:46:39.253Z,35.30
2023-05-20T16:49:07.214Z,18.10
2023-05-20T16:51:38.232Z,18.30
2023-05-20T16:54:06.498Z,15.70
2023-05-20T16:56:35.557Z,18.50
2023-05-20T16:59:03.596Z,14.00
2023-05-20T17:01:31.942Z,16.20
2023-05-20T17:04:00.409Z,15.40
2023-05-20T17:06:28.479Z,16.40
2023-05-20T17:08:57.178Z,29.70
2023-05-20T17:11:28.154Z,18.20
2023-05-20T17:13:56.710Z,14.40
2023-05-20T17:16:24.884Z,15.50
2023-05-20T17:18:53.661Z,20.70
2023-05-20T17:21:21.648Z,19.10
2023-05-20T17:23:49.696Z,18.00
2023-05-20T17:26:17.497Z,16.40
2023-05-20T17:28:45.603Z,16.00
2023-05-20T17:31:13.747Z,21.40
2023-05-20T17:33:42.296Z,20.50
2023-05-20T17:36:11.698Z,26.40
2023-05-20T17:38:39.693Z,14.80
2023-05-20T17:41:07.692Z,18.10
2023-05-20T17:43:36.193Z,19.70
2023-05-20T17:46:04.350Z,18.10
2023-05-20T17:48:37.827Z,16.20
2023-05-20T17:51:06.140Z,18.60
2023-05-20T17:53:34.086Z,16.70
2023-05-20T17:56:02.045Z,15.80
2023-05-20T17:58:31.288Z,17.40
2023-05-20T18:00:59.900Z,17.50
2023-05-20T18:03:29.298Z,14.30
2023-05-20T18:05:57.368Z,16.80
2023-05-20T18:08:28.221Z,16.20
2023-05-20T18:10:56.270Z,16.50
2023-05-20T18:13:27.310Z,21.20
2023-05-20T18:15:55.559Z,23.70
2023-05-20T18:18:23.549Z,17.10
2023-05-20T18:20:51.642Z,20.50
2023-05-20T18:23:19.620Z,23.80
2023-05-20T18:25:47.871Z,22.60
2023-05-20T18:28:15.868Z,26.90
2023-05-20T18:30:44.001Z,27.90
2023-05-20T18:33:15.164Z,45.50
2023-05-20T18:35:43.157Z,30.40
2023-05-20T18:38:11.217Z,29.20
2023-05-20T18:40:39.124Z,24.00
2023-05-20T18:43:07.029Z,23.10
2023-05-20T18:45:35.087Z,27.20
2023-05-20T18:48:03.235Z,35.90
2023-05-20T18:50:31.543Z,45.80
2023-05-20T18:52:59.430Z,38.00
2023-05-20T18:55:28.299Z,40.50
2023-05-20T18:57:56.364Z,36.00
2023-05-20T19:00:25.319Z,32.60
2023-05-20T19:02:53.506Z,30.90
2023-05-20T19:05:21.436Z,28.60
2023-05-20T19:07:49.314Z,33.00
2023-05-20T19:10:17.255Z,27.50
2023-05-20T19:12:45.432Z,26.90
2023-05-20T19:15:13.418Z,29.70
2023-05-20T19:17:41.647Z,26.80
2023-05-20T19:20:10.799Z,28.50
2023-05-20T19:22:40.086Z,28.20
2023-05-20T19:25:08.479Z,31.00
2023-05-20T19:27:36.545Z,31.70
2023-05-20T19:30:04.743Z,28.40
2023-05-20T19:32:34.906Z,25.00
2023-05-20T19:35:05.749Z,30.60
2023-05-20T19:37:36.989Z,28.80
2023-05-20T19:40:05.574Z,27.90
2023-05-20T19:42:34.592Z,33.10
2023-05-20T19:45:02.947Z,29.70
2023-05-20T19:47:31.226Z,29.00
2023-05-20T19:49:59.708Z,28.60
2023-05-20T19:52:27.707Z,28.80
2023-05-20T19:54:55.819Z,30.20
2023-05-20T19:57:24.259Z,29.40
2023-05-20T19:59:53.640Z,26.70
2023-05-20T20:02:21.889Z,23.50
2023-05-20T20:04:49.778Z,28.80
2023-05-20T20:07:18.132Z,26.90
2023-05-20T20:09:48.465Z,36.10
2023-05-20T20:12:16.493Z,33.20
2023-05-20T20:14:44.346Z,37.40
2023-05-20T20:17:15.998Z,28.60
2023-05-20T20:19:49.326Z,28.50
2023-05-20T20:22:17.228Z,30.40
2023-05-20T20:24:45.102Z,28.20
2023-05-20T20:27:17.527Z,28.00
2023-05-20T20:29:48.289Z,28.70
2023-05-20T20:32:16.506Z,27.00
2023-05-20T20:34:46.624Z,30.90
2023-05-20T20:37:15.075Z,29.80
2023-05-20T20:39:46.843Z,25.70
2023-05-20T20:42:18.697Z,27.20
2023-05-20T20:44:48.395Z,28.20
2023-05-20T20:47:16.303Z,26.20
2023-05-20T20:49:44.438Z,26.10
2023-05-20T20:52:12.498Z,30.70
2023-05-20T20:54:42.916Z,29.10
2023-05-20T20:57:12.121Z,30.50
2023-05-20T20:59:47.775Z,31.00
2023-05-20T21:02:16.315Z,25.60
2023-05-20T21:04:44.445Z,24.80
2023-05-20T21:07:13.142Z,27.10
2023-05-20T21:09:41.184Z,22.40
2023-05-20T21:12:09.633Z,26.90
2023-05-20T21:14:43.385Z,23.90
2023-05-20T21:17:11.635Z,39.50
2023-05-20T21:19:39.806Z,25.40
2023-05-20T21:22:07.800Z,30.90
2023-05-20T21:24:36.194Z,28.20
2023-05-20T21:27:04.648Z,27.60
2023-05-20T21:29:34.016Z,29.20
2023-05-20T21:32:01.956Z,31.00
2023-05-20T21:34:30.076Z,32.60
2023-05-20T21:36:58.067Z,28.70
2023-05-20T21:39:26.030Z,28.10
2023-05-20T21:41:53.859Z,28.50
2023-05-20T21:44:21.943Z,31.90
2023-05-20T21:46:49.940Z,27.70
2023-05-20T21:49:18.532Z,28.70
2023-05-20T21:51:48.226Z,30.90
2023-05-20T21:54:16.460Z,32.90
2023-05-20T21:56:44.398Z,31.70
2023-05-20T21:59:12.627Z,27.10
2023-05-20T22:01:41.130Z,27.40
2023-05-20T22:04:11.773Z,30.00
2023-05-20T22:06:40.017Z,30.70
2023-05-20T22:09:08.486Z,26.60
2023-05-20T22:11:37.811Z,23.10
2023-05-20T22:14:05.753Z,25.30
2023-05-20T22:16:33.817Z,25.80
2023-05-20T22:19:03.562Z,25.30
2023-05-20T22:21:39.522Z,24.30
2023-05-20T22:24:11.971Z,22.30
2023-05-20T22:26:40.863Z,24.50
2023-05-20T22:29:09.325Z,26.10
2023-05-20T22:31:38.716Z,20.90
2023-05-20T22:34:07.036Z,25.50
2023-05-20T22:36:36.563Z,26.70
2023-05-20T22:39:06.968Z,25.80
2023-05-20T22:41:35.184Z,25.80
2023-05-20T22:44:03.172Z,23.10
2023-05-20T22:46:31.452Z,24.50
2023-05-20T22:49:00.237Z,24.40
2023-05-20T22:51:28.877Z,22.80
2023-05-20T22:53:57.658Z,20.80
2023-05-20T22:56:26.408Z,24.10
2023-05-20T22:58:54.375Z,21.80
2023-05-20T23:01:22.807Z,24.30
2023-05-20T23:03:53.240Z,22.60
2023-05-20T23:06:23.312Z,25.80
2023-05-20T23:08:54.415Z,31.30
2023-05-20T23:11:23.390Z,25.70
2023-05-20T23:13:51.591Z,25.10
2023-05-20T23:16:19.874Z,22.40
2023-05-20T23:18:47.957Z,21.80
2023-05-20T23:21:17.046Z,19.40
2023-05-20T23:23:44.905Z,19.10
2023-05-20T23:26:13.211Z,19.90
2023-05-20T23:28:41.893Z,21.50
2023-05-20T23:31:09.868Z,22.40
2023-05-20T23:33:57.728Z,28.80
2023-05-20T23:36:25.992Z,20.10
2023-05-20T23:38:53.932Z,21.30
2023-05-20T23:41:22.545Z,19.30
2023-05-20T23:43:53.508Z,18.70
2023-05-20T23:46:28.924Z,19.80
2023-05-20T23:48:57.035Z,23.90
2023-05-20T23:51:25.156Z,20.00
2023-05-20T23:53:53.250Z,20.80
2023-05-20T23:56:21.760Z,21.50
2023-05-20T23:58:49.797Z,19.60
